sensor_id;sensor_type;location;lat;lon;timestamp;pressure;altitude;pressure_sealevel;temperature;humidity
42411;BME280;28056;51.112;0.984;2023-03-13T00:01:56;99027.39;;;12.02;77.56
42411;BME280;28056;51.112;0.984;2023-03-13T00:04:24;99025.28;;;11.69;79.39
42411;BME280;28056;51.112;0.984;2023-03-13T00:06:51;99016.89;;;11.87;77.75
42411;BME280;28056;51.112;0.984;2023-03-13T00:09:19;99012.54;;;11.51;78.22
42411;BME280;28056;51.112;0.984;2023-03-13T00:13:53;99005.73;;;11.47;76.71
42411;BME280;28056;51.112;0.984;2023-03-13T00:16:21;98994.77;;;12.32;75.01
42411;BME280;28056;51.112;0.984;2023-03-13T00:18:50;98976.27;;;11.15;78.76
42411;BME280;28056;51.112;0.984;2023-03-13T00:21:19;98980.20;;;11.06;80.57
42411;BME280;28056;51.112;0.984;2023-03-13T00:23:47;98963.70;;;11.38;80.39
42411;BME280;28056;51.112;0.984;2023-03-13T00:26:16;98958.20;;;11.25;81.57
42411;BME280;28056;51.112;0.984;2023-03-13T00:28:44;98953.85;;;11.98;79.72
42411;BME280;28056;51.112;0.984;2023-03-13T00:31:13;98960.43;;;10.80;82.23
42411;BME280;28056;51.112;0.984;2023-03-13T00:33:42;98954.90;;;11.15;80.79
42411;BME280;28056;51.112;0.984;2023-03-13T00:36:11;98949.52;;;11.27;80.88
42411;BME280;28056;51.112;0.984;2023-03-13T00:38:40;98941.53;;;11.34;80.21
42411;BME280;28056;51.112;0.984;2023-03-13T00:41:09;98937.86;;;11.19;80.76
42411;BME280;28056;51.112;0.984;2023-03-13T00:43:38;98948.61;;;11.71;78.41
42411;BME280;28056;51.112;0.984;2023-03-13T00:46:05;98938.87;;;11.76;78.85
42411;BME280;28056;51.112;0.984;2023-03-13T00:48:33;98930.16;;;11.74;77.10
42411;BME280;28056;51.112;0.984;2023-03-13T00:51:01;98926.88;;;11.00;79.48
42411;BME280;28056;51.112;0.984;2023-03-13T00:53:29;98920.08;;;11.53;78.17
42411;BME280;28056;51.112;0.984;2023-03-13T00:55:58;98928.66;;;11.29;78.77
42411;BME280;28056;51.112;0.984;2023-03-13T00:58:28;98926.97;;;11.18;78.85
42411;BME280;28056;51.112;0.984;2023-03-13T01:00:56;98932.28;;;10.84;81.37
42411;BME280;28056;51.112;0.984;2023-03-13T01:04:46;98931.41;;;10.39;82.30
42411;BME280;28056;51.112;0.984;2023-03-13T01:07:14;98943.57;;;10.41;83.63
42411;BME280;28056;51.112;0.984;2023-03-13T01:09:42;98954.17;;;10.47;84.80
42411;BME280;28056;51.112;0.984;2023-03-13T01:12:09;98939.89;;;10.91;81.92
42411;BME280;28056;51.112;0.984;2023-03-13T01:14:36;98921.74;;;11.30;81.62
42411;BME280;28056;51.112;0.984;2023-03-13T01:17:03;98919.12;;;11.39;79.31
42411;BME280;28056;51.112;0.984;2023-03-13T01:19:31;98926.48;;;11.20;81.66
42411;BME280;28056;51.112;0.984;2023-03-13T01:21:58;98918.56;;;11.29;80.36
42411;BME280;28056;51.112;0.984;2023-03-13T01:24:26;98908.82;;;11.56;80.46
42411;BME280;28056;51.112;0.984;2023-03-13T01:26:53;98922.91;;;11.88;79.63
42411;BME280;28056;51.112;0.984;2023-03-13T01:29:20;98912.25;;;11.69;78.44
42411;BME280;28056;51.112;0.984;2023-03-13T01:31:48;98922.98;;;12.16;77.69
42411;BME280;28056;51.112;0.984;2023-03-13T01:34:15;98917.56;;;11.94;78.01
42411;BME280;28056;51.112;0.984;2023-03-13T01:36:43;98919.08;;;11.09;80.36
42411;BME280;28056;51.112;0.984;2023-03-13T01:39:10;98919.32;;;12.26;77.37
42411;BME280;28056;51.112;0.984;2023-03-13T01:41:38;98935.40;;;12.12;76.36
42411;BME280;28056;51.112;0.984;2023-03-13T01:44:08;98938.52;;;12.66;76.41
42411;BME280;28056;51.112;0.984;2023-03-13T01:46:45;98931.71;;;12.10;75.82
42411;BME280;28056;51.112;0.984;2023-03-13T01:49:14;98929.63;;;12.00;77.14
42411;BME280;28056;51.112;0.984;2023-03-13T01:51:47;98919.48;;;11.67;78.42
42411;BME280;28056;51.112;0.984;2023-03-13T01:54:19;98919.41;;;11.62;79.19
42411;BME280;28056;51.112;0.984;2023-03-13T01:56:50;98900.62;;;11.53;78.77
42411;BME280;28056;51.112;0.984;2023-03-13T01:59:23;98906.45;;;12.04;78.70
42411;BME280;28056;51.112;0.984;2023-03-13T02:01:56;98899.84;;;11.80;79.08
42411;BME280;28056;51.112;0.984;2023-03-13T02:04:27;98886.51;;;11.51;78.39
42411;BME280;28056;51.112;0.984;2023-03-13T02:07:01;98879.70;;;11.98;77.37
42411;BME280;28056;51.112;0.984;2023-03-13T02:09:30;98861.15;;;11.30;79.60
42411;BME280;28056;51.112;0.984;2023-03-13T02:12:03;98860.93;;;11.27;79.96
42411;BME280;28056;51.112;0.984;2023-03-13T02:14:34;98858.81;;;11.26;80.54
42411;BME280;28056;51.112;0.984;2023-03-13T02:17:03;98860.78;;;11.47;81.16
42411;BME280;28056;51.112;0.984;2023-03-13T02:19:36;98861.95;;;11.53;79.14
42411;BME280;28056;51.112;0.984;2023-03-13T02:22:11;98853.32;;;11.13;80.64
42411;BME280;28056;51.112;0.984;2023-03-13T02:24:48;98843.49;;;11.48;79.64
42411;BME280;28056;51.112;0.984;2023-03-13T02:27:19;98848.21;;;11.46;79.78
42411;BME280;28056;51.112;0.984;2023-03-13T02:29:48;98866.29;;;11.53;80.87
42411;BME280;28056;51.112;0.984;2023-03-13T02:32:16;98868.98;;;11.77;78.64
42411;BME280;28056;51.112;0.984;2023-03-13T02:34:45;98870.19;;;11.89;79.46
42411;BME280;28056;51.112;0.984;2023-03-13T02:37:17;98868.33;;;11.32;79.25
42411;BME280;28056;51.112;0.984;2023-03-13T02:39:47;98879.16;;;10.75;81.45
42411;BME280;28056;51.112;0.984;2023-03-13T02:42:18;98858.44;;;10.59;82.45
42411;BME280;28056;51.112;0.984;2023-03-13T02:44:48;98863.16;;;10.74;81.95
42411;BME280;28056;51.112;0.984;2023-03-13T02:47:18;98857.59;;;10.88;81.78
42411;BME280;28056;51.112;0.984;2023-03-13T02:49:46;98842.84;;;11.20;79.87
42411;BME280;28056;51.112;0.984;2023-03-13T02:52:18;98834.42;;;11.57;78.61
42411;BME280;28056;51.112;0.984;2023-03-13T02:54:49;98827.34;;;11.26;78.18
42411;BME280;28056;51.112;0.984;2023-03-13T02:57:17;98824.12;;;11.24;78.92
42411;BME280;28056;51.112;0.984;2023-03-13T02:59:45;98818.32;;;11.24;78.75
42411;BME280;28056;51.112;0.984;2023-03-13T03:02:12;98792.48;;;10.98;78.88
42411;BME280;28056;51.112;0.984;2023-03-13T03:04:39;98798.08;;;11.14;79.07
42411;BME280;28056;51.112;0.984;2023-03-13T03:07:07;98795.44;;;11.01;79.62
42411;BME280;28056;51.112;0.984;2023-03-13T03:09:34;98796.64;;;10.68;79.25
42411;BME280;28056;51.112;0.984;2023-03-13T03:12:02;98780.87;;;11.18;77.53
42411;BME280;28056;51.112;0.984;2023-03-13T03:14:30;98783.07;;;11.13;79.75
42411;BME280;28056;51.112;0.984;2023-03-13T03:16:57;98776.46;;;10.58;81.38
42411;BME280;28056;51.112;0.984;2023-03-13T03:19:24;98770.25;;;10.11;83.85
42411;BME280;28056;51.112;0.984;2023-03-13T03:21:51;98768.45;;;9.52;86.90
42411;BME280;28056;51.112;0.984;2023-03-13T03:24:18;98757.83;;;10.09;85.09
42411;BME280;28056;51.112;0.984;2023-03-13T03:26:46;98761.86;;;10.63;82.98
42411;BME280;28056;51.112;0.984;2023-03-13T03:29:13;98743.04;;;10.97;80.57
42411;BME280;28056;51.112;0.984;2023-03-13T03:31:40;98753.76;;;11.03;81.23
42411;BME280;28056;51.112;0.984;2023-03-13T03:34:34;98742.44;;;11.41;79.30
42411;BME280;28056;51.112;0.984;2023-03-13T03:37:02;98740.93;;;11.61;78.85
42411;BME280;28056;51.112;0.984;2023-03-13T03:39:29;98731.92;;;10.86;79.42
42411;BME280;28056;51.112;0.984;2023-03-13T03:41:56;98739.73;;;10.36;81.19
42411;BME280;28056;51.112;0.984;2023-03-13T03:44:24;98748.08;;;11.49;79.03
42411;BME280;28056;51.112;0.984;2023-03-13T03:46:51;98760.48;;;9.83;85.37
42411;BME280;28056;51.112;0.984;2023-03-13T03:49:19;98750.31;;;10.50;82.25
42411;BME280;28056;51.112;0.984;2023-03-13T03:51:46;98763.24;;;11.05;81.19
42411;BME280;28056;51.112;0.984;2023-03-13T03:54:14;98751.28;;;10.63;83.16
42411;BME280;28056;51.112;0.984;2023-03-13T03:56:42;98746.44;;;10.66;83.07
42411;BME280;28056;51.112;0.984;2023-03-13T03:59:09;98750.01;;;10.49;82.72
42411;BME280;28056;51.112;0.984;2023-03-13T04:01:37;98746.73;;;10.65;83.23
42411;BME280;28056;51.112;0.984;2023-03-13T04:04:04;98756.61;;;11.42;80.00
42411;BME280;28056;51.112;0.984;2023-03-13T04:06:32;98746.90;;;11.39;79.40
42411;BME280;28056;51.112;0.984;2023-03-13T04:08:59;98740.53;;;11.00;82.30
42411;BME280;28056;51.112;0.984;2023-03-13T04:11:27;98735.93;;;11.28;81.71
42411;BME280;28056;51.112;0.984;2023-03-13T04:13:55;98741.85;;;11.49;79.19
42411;BME280;28056;51.112;0.984;2023-03-13T04:16:23;98740.06;;;11.52;79.82
42411;BME280;28056;51.112;0.984;2023-03-13T04:18:50;98740.73;;;10.77;81.68
42411;BME280;28056;51.112;0.984;2023-03-13T04:21:17;98733.95;;;10.82;82.39
42411;BME280;28056;51.112;0.984;2023-03-13T04:23:45;98726.88;;;11.72;79.41
42411;BME280;28056;51.112;0.984;2023-03-13T04:26:12;98732.63;;;10.62;82.99
42411;BME280;28056;51.112;0.984;2023-03-13T04:28:40;98724.44;;;10.89;81.98
42411;BME280;28056;51.112;0.984;2023-03-13T04:31:07;98732.30;;;11.64;80.58
42411;BME280;28056;51.112;0.984;2023-03-13T04:33:35;98732.16;;;11.00;81.96
42411;BME280;28056;51.112;0.984;2023-03-13T04:36:07;98719.90;;;11.08;81.40
42411;BME280;28056;51.112;0.984;2023-03-13T04:38:34;98722.95;;;11.10;82.68
42411;BME280;28056;51.112;0.984;2023-03-13T04:41:02;98722.43;;;10.84;82.29
42411;BME280;28056;51.112;0.984;2023-03-13T04:43:29;98727.18;;;11.15;83.74
42411;BME280;28056;51.112;0.984;2023-03-13T04:45:56;98732.83;;;10.72;84.64
42411;BME280;28056;51.112;0.984;2023-03-13T04:48:23;98719.71;;;11.35;83.76
42411;BME280;28056;51.112;0.984;2023-03-13T04:50:51;98732.53;;;11.00;84.21
42411;BME280;28056;51.112;0.984;2023-03-13T04:53:18;98719.08;;;10.95;84.67
42411;BME280;28056;51.112;0.984;2023-03-13T04:55:46;98719.68;;;11.04;85.17
42411;BME280;28056;51.112;0.984;2023-03-13T04:58:14;98723.42;;;11.27;83.91
42411;BME280;28056;51.112;0.984;2023-03-13T05:00:41;98722.23;;;11.23;84.58
42411;BME280;28056;51.112;0.984;2023-03-13T05:03:09;98717.82;;;11.16;84.68
42411;BME280;28056;51.112;0.984;2023-03-13T05:05:36;98709.78;;;10.90;86.73
42411;BME280;28056;51.112;0.984;2023-03-13T05:08:05;98706.81;;;10.71;87.95
42411;BME280;28056;51.112;0.984;2023-03-13T05:10:33;98704.42;;;10.32;88.71
42411;BME280;28056;51.112;0.984;2023-03-13T05:13:00;98694.19;;;11.27;86.76
42411;BME280;28056;51.112;0.984;2023-03-13T05:15:27;98725.66;;;10.34;89.49
42411;BME280;28056;51.112;0.984;2023-03-13T05:17:55;98720.03;;;11.01;88.21
42411;BME280;28056;51.112;0.984;2023-03-13T05:20:23;98690.95;;;11.59;85.51
42411;BME280;28056;51.112;0.984;2023-03-13T05:22:49;98703.84;;;10.62;89.26
42411;BME280;28056;51.112;0.984;2023-03-13T05:25:16;98701.64;;;10.43;88.86
42411;BME280;28056;51.112;0.984;2023-03-13T05:27:44;98684.14;;;11.00;87.33
42411;BME280;28056;51.112;0.984;2023-03-13T05:30:12;98703.54;;;10.91;86.67
42411;BME280;28056;51.112;0.984;2023-03-13T05:32:39;98693.05;;;10.13;90.60
42411;BME280;28056;51.112;0.984;2023-03-13T05:35:06;98703.97;;;9.84;90.32
42411;BME280;28056;51.112;0.984;2023-03-13T05:37:34;98686.79;;;10.77;89.81
42411;BME280;28056;51.112;0.984;2023-03-13T05:40:08;98682.60;;;10.97;86.79
42411;BME280;28056;51.112;0.984;2023-03-13T05:42:35;98672.79;;;10.78;87.46
42411;BME280;28056;51.112;0.984;2023-03-13T05:45:03;98697.00;;;11.13;85.54
42411;BME280;28056;51.112;0.984;2023-03-13T05:47:31;98672.27;;;11.19;85.66
42411;BME280;28056;51.112;0.984;2023-03-13T05:49:58;98657.22;;;10.93;85.66
42411;BME280;28056;51.112;0.984;2023-03-13T05:52:25;98660.88;;;11.70;82.37
42411;BME280;28056;51.112;0.984;2023-03-13T05:54:52;98652.94;;;11.35;83.57
42411;BME280;28056;51.112;0.984;2023-03-13T05:57:21;98663.90;;;11.00;83.32
42411;BME280;28056;51.112;0.984;2023-03-13T05:59:48;98655.71;;;10.87;85.86
42411;BME280;28056;51.112;0.984;2023-03-13T06:02:16;98656.37;;;9.58;88.02
42411;BME280;28056;51.112;0.984;2023-03-13T06:04:43;98663.14;;;8.55;95.28
42411;BME280;28056;51.112;0.984;2023-03-13T06:07:11;98658.23;;;8.56;99.73
42411;BME280;28056;51.112;0.984;2023-03-13T06:09:39;98663.59;;;8.49;100.00
42411;BME280;28056;51.112;0.984;2023-03-13T06:12:06;98672.77;;;8.91;100.00
42411;BME280;28056;51.112;0.984;2023-03-13T06:14:33;98671.14;;;8.60;100.00
42411;BME280;28056;51.112;0.984;2023-03-13T06:17:00;98666.92;;;8.17;100.00
42411;BME280;28056;51.112;0.984;2023-03-13T06:19:29;98669.10;;;8.19;100.00
42411;BME280;28056;51.112;0.984;2023-03-13T06:21:57;98677.21;;;7.93;100.00
42411;BME280;28056;51.112;0.984;2023-03-13T06:24:24;98675.03;;;8.47;100.00
42411;BME280;28056;51.112;0.984;2023-03-13T06:26:52;98683.49;;;8.14;100.00
42411;BME280;28056;51.112;0.984;2023-03-13T06:29:19;98683.63;;;8.10;100.00
42411;BME280;28056;51.112;0.984;2023-03-13T06:31:47;98683.65;;;7.68;100.00
42411;BME280;28056;51.112;0.984;2023-03-13T06:34:14;98682.15;;;8.12;100.00
42411;BME280;28056;51.112;0.984;2023-03-13T06:36:42;98700.96;;;8.29;100.00
42411;BME280;28056;51.112;0.984;2023-03-13T06:39:11;98683.96;;;8.63;100.00
42411;BME280;28056;51.112;0.984;2023-03-13T06:41:38;98679.56;;;8.48;100.00
42411;BME280;28056;51.112;0.984;2023-03-13T06:44:05;98676.57;;;8.33;100.00
42411;BME280;28056;51.112;0.984;2023-03-13T06:46:32;98679.06;;;8.38;100.00
42411;BME280;28056;51.112;0.984;2023-03-13T06:48:59;98674.49;;;8.14;100.00
42411;BME280;28056;51.112;0.984;2023-03-13T06:51:27;98668.88;;;7.98;100.00
42411;BME280;28056;51.112;0.984;2023-03-13T06:53:54;98663.80;;;7.82;100.00
42411;BME280;28056;51.112;0.984;2023-03-13T06:56:22;98659.41;;;8.47;100.00
42411;BME280;28056;51.112;0.984;2023-03-13T06:58:50;98662.60;;;8.53;100.00
42411;BME280;28056;51.112;0.984;2023-03-13T07:01:17;98667.42;;;8.28;100.00
42411;BME280;28056;51.112;0.984;2023-03-13T07:03:46;98676.77;;;8.17;100.00
42411;BME280;28056;51.112;0.984;2023-03-13T07:06:14;98671.16;;;8.32;100.00
42411;BME280;28056;51.112;0.984;2023-03-13T07:08:41;98660.28;;;8.92;100.00
42411;BME280;28056;51.112;0.984;2023-03-13T07:11:12;98658.11;;;8.30;100.00
42411;BME280;28056;51.112;0.984;2023-03-13T07:13:39;98657.57;;;8.51;100.00
42411;BME280;28056;51.112;0.984;2023-03-13T07:16:08;98661.66;;;8.07;100.00
42411;BME280;28056;51.112;0.984;2023-03-13T07:18:36;98651.14;;;8.43;100.00
42411;BME280;28056;51.112;0.984;2023-03-13T07:21:04;98655.17;;;8.23;100.00
42411;BME280;28056;51.112;0.984;2023-03-13T07:23:33;98652.44;;;8.43;100.00
42411;BME280;28056;51.112;0.984;2023-03-13T07:26:03;98659.66;;;8.70;99.91
42411;BME280;28056;51.112;0.984;2023-03-13T07:28:32;98664.53;;;8.66;97.69
42411;BME280;28056;51.112;0.984;2023-03-13T07:31:05;98658.64;;;8.99;96.46
42411;BME280;28056;51.112;0.984;2023-03-13T07:33:33;98653.66;;;8.83;97.13
42411;BME280;28056;51.112;0.984;2023-03-13T07:36:00;98655.71;;;8.93;94.86
42411;BME280;28056;51.112;0.984;2023-03-13T07:38:28;98656.99;;;8.82;97.32
42411;BME280;28056;51.112;0.984;2023-03-13T07:40:56;98638.13;;;8.95;96.68
42411;BME280;28056;51.112;0.984;2023-03-13T07:43:25;98630.84;;;9.19;97.31
42411;BME280;28056;51.112;0.984;2023-03-13T07:45:54;98637.98;;;8.97;97.35
42411;BME280;28056;51.112;0.984;2023-03-13T07:48:23;98634.22;;;9.63;94.19
42411;BME280;28056;51.112;0.984;2023-03-13T07:50:52;98628.58;;;9.03;95.10
42411;BME280;28056;51.112;0.984;2023-03-13T07:53:20;98628.36;;;8.98;95.99
42411;BME280;28056;51.112;0.984;2023-03-13T07:55:52;98639.40;;;9.00;96.40
42411;BME280;28056;51.112;0.984;2023-03-13T07:58:20;98641.62;;;8.96;97.48
42411;BME280;28056;51.112;0.984;2023-03-13T08:00:49;98644.13;;;8.57;96.50
42411;BME280;28056;51.112;0.984;2023-03-13T08:03:16;98644.96;;;9.11;95.65
42411;BME280;28056;51.112;0.984;2023-03-13T08:05:44;98638.05;;;9.18;95.49
42411;BME280;28056;51.112;0.984;2023-03-13T08:08:11;98640.69;;;9.67;90.38
42411;BME280;28056;51.112;0.984;2023-03-13T08:10:39;98648.15;;;9.25;93.10
42411;BME280;28056;51.112;0.984;2023-03-13T08:13:07;98645.12;;;8.70;96.17
42411;BME280;28056;51.112;0.984;2023-03-13T08:15:34;98631.31;;;8.38;100.00
42411;BME280;28056;51.112;0.984;2023-03-13T08:18:02;98647.27;;;8.82;98.10
42411;BME280;28056;51.112;0.984;2023-03-13T08:20:29;98638.67;;;8.62;100.00
42411;BME280;28056;51.112;0.984;2023-03-13T08:22:57;98636.96;;;8.42;100.00
42411;BME280;28056;51.112;0.984;2023-03-13T08:25:24;98650.72;;;8.78;100.00
42411;BME280;28056;51.112;0.984;2023-03-13T08:27:51;98642.91;;;9.01;99.57
42411;BME280;28056;51.112;0.984;2023-03-13T08:30:18;98634.15;;;8.83;98.23
42411;BME280;28056;51.112;0.984;2023-03-13T08:32:46;98634.76;;;8.63;99.67
42411;BME280;28056;51.112;0.984;2023-03-13T08:35:13;98635.12;;;9.05;99.13
42411;BME280;28056;51.112;0.984;2023-03-13T08:37:41;98626.53;;;8.59;98.50
42411;BME280;28056;51.112;0.984;2023-03-13T08:40:09;98612.64;;;8.68;94.98
42411;BME280;28056;51.112;0.984;2023-03-13T08:42:37;98625.93;;;8.51;94.70
42411;BME280;28056;51.112;0.984;2023-03-13T08:45:06;98616.01;;;8.67;94.72
42411;BME280;28056;51.112;0.984;2023-03-13T08:47:34;98608.96;;;8.61;92.03
42411;BME280;28056;51.112;0.984;2023-03-13T08:50:02;98604.95;;;9.52;89.46
42411;BME280;28056;51.112;0.984;2023-03-13T08:52:29;98607.23;;;9.28;89.21
42411;BME280;28056;51.112;0.984;2023-03-13T08:54:57;98600.43;;;9.22;87.26
42411;BME280;28056;51.112;0.984;2023-03-13T08:57:24;98606.23;;;9.51;87.75
42411;BME280;28056;51.112;0.984;2023-03-13T08:59:52;98605.17;;;8.85;89.16
42411;BME280;28056;51.112;0.984;2023-03-13T09:02:20;98627.61;;;9.46;88.00
42411;BME280;28056;51.112;0.984;2023-03-13T09:04:47;98610.52;;;9.10;86.17
42411;BME280;28056;51.112;0.984;2023-03-13T09:07:14;98597.91;;;9.27;89.29
42411;BME280;28056;51.112;0.984;2023-03-13T09:09:42;98598.10;;;8.59;88.33
42411;BME280;28056;51.112;0.984;2023-03-13T09:12:10;98600.90;;;9.39;83.97
42411;BME280;28056;51.112;0.984;2023-03-13T09:14:37;98586.74;;;9.61;85.75
42411;BME280;28056;51.112;0.984;2023-03-13T09:17:06;98584.80;;;9.18;83.20
42411;BME280;28056;51.112;0.984;2023-03-13T09:19:33;98584.74;;;10.15;82.98
42411;BME280;28056;51.112;0.984;2023-03-13T09:22:00;98585.13;;;10.22;86.18
42411;BME280;28056;51.112;0.984;2023-03-13T09:24:27;98575.98;;;9.73;83.91
42411;BME280;28056;51.112;0.984;2023-03-13T09:26:54;98572.26;;;9.97;84.78
42411;BME280;28056;51.112;0.984;2023-03-13T09:29:22;98570.73;;;9.84;85.53
42411;BME280;28056;51.112;0.984;2023-03-13T09:31:49;98585.79;;;10.51;83.60
42411;BME280;28056;51.112;0.984;2023-03-13T09:34:16;98579.68;;;9.99;85.36
42411;BME280;28056;51.112;0.984;2023-03-13T09:36:44;98559.25;;;10.17;82.73
42411;BME280;28056;51.112;0.984;2023-03-13T09:39:11;98568.16;;;9.69;82.37
42411;BME280;28056;51.112;0.984;2023-03-13T09:41:42;98558.06;;;10.31;79.98
42411;BME280;28056;51.112;0.984;2023-03-13T09:44:15;98555.97;;;10.09;81.68
42411;BME280;28056;51.112;0.984;2023-03-13T09:46:48;98564.87;;;10.02;81.31
42411;BME280;28056;51.112;0.984;2023-03-13T09:49:29;98561.60;;;9.96;80.82
42411;BME280;28056;51.112;0.984;2023-03-13T09:52:03;98573.33;;;9.96;80.09
42411;BME280;28056;51.112;0.984;2023-03-13T09:54:40;98560.56;;;9.87;81.53
42411;BME280;28056;51.112;0.984;2023-03-13T09:57:15;98565.81;;;10.23;81.47
42411;BME280;28056;51.112;0.984;2023-03-13T09:59:48;98556.78;;;10.27;79.48
42411;BME280;28056;51.112;0.984;2023-03-13T10:02:25;98566.82;;;10.00;82.04
42411;BME280;28056;51.112;0.984;2023-03-13T10:07:10;98569.20;;;10.05;78.05
42411;BME280;28056;51.112;0.984;2023-03-13T10:09:37;98560.21;;;10.35;77.79
42411;BME280;28056;51.112;0.984;2023-03-13T10:12:11;98544.97;;;11.05;76.20
42411;BME280;28056;51.112;0.984;2023-03-13T10:14:43;98562.29;;;10.39;77.22
42411;BME280;28056;51.112;0.984;2023-03-13T10:17:21;98548.46;;;10.47;75.95
42411;BME280;28056;51.112;0.984;2023-03-13T10:19:59;98568.77;;;10.40;76.33
42411;BME280;28056;51.112;0.984;2023-03-13T10:22:38;98561.17;;;10.06;78.70
42411;BME280;28056;51.112;0.984;2023-03-13T10:25:22;98531.90;;;10.10;76.67
42411;BME280;28056;51.112;0.984;2023-03-13T10:27:51;98549.48;;;10.40;77.99
42411;BME280;28056;51.112;0.984;2023-03-13T10:30:22;98546.89;;;10.57;75.20
42411;BME280;28056;51.112;0.984;2023-03-13T10:32:50;98530.52;;;10.63;78.12
42411;BME280;28056;51.112;0.984;2023-03-13T10:35:23;98549.20;;;10.04;77.64
42411;BME280;28056;51.112;0.984;2023-03-13T10:38:01;98527.55;;;10.57;78.24
42411;BME280;28056;51.112;0.984;2023-03-13T10:40:29;98522.94;;;10.84;77.20
42411;BME280;28056;51.112;0.984;2023-03-13T10:43:02;98536.83;;;10.60;76.02
42411;BME280;28056;51.112;0.984;2023-03-13T10:45:32;98524.09;;;10.67;74.50
42411;BME280;28056;51.112;0.984;2023-03-13T10:48:02;98512.63;;;10.96;76.11
42411;BME280;28056;51.112;0.984;2023-03-13T10:50:33;98511.92;;;10.59;75.64
42411;BME280;28056;51.112;0.984;2023-03-13T10:53:19;98505.09;;;11.06;72.88
42411;BME280;28056;51.112;0.984;2023-03-13T10:55:47;98551.99;;;10.83;71.37
42411;BME280;28056;51.112;0.984;2023-03-13T10:58:19;98484.24;;;10.97;74.73
42411;BME280;28056;51.112;0.984;2023-03-13T11:00:49;98515.81;;;10.97;71.95
42411;BME280;28056;51.112;0.984;2023-03-13T11:03:18;98496.94;;;10.94;70.45
42411;BME280;28056;51.112;0.984;2023-03-13T11:05:55;98499.88;;;11.29;70.92
42411;BME280;28056;51.112;0.984;2023-03-13T11:08:25;98499.54;;;11.53;73.08
42411;BME280;28056;51.112;0.984;2023-03-13T11:10:56;98478.26;;;11.79;69.64
42411;BME280;28056;51.112;0.984;2023-03-13T11:13:30;98465.02;;;11.75;66.80
42411;BME280;28056;51.112;0.984;2023-03-13T11:16:03;98483.96;;;11.42;68.19
42411;BME280;28056;51.112;0.984;2023-03-13T11:18:41;98474.47;;;11.29;68.19
42411;BME280;28056;51.112;0.984;2023-03-13T11:21:16;98480.40;;;11.81;67.10
42411;BME280;28056;51.112;0.984;2023-03-13T11:23:49;98485.29;;;11.44;65.58
42411;BME280;28056;51.112;0.984;2023-03-13T11:26:22;98470.91;;;11.49;67.09
42411;BME280;28056;51.112;0.984;2023-03-13T11:46:06;98501.30;;;11.54;67.63
42411;BME280;28056;51.112;0.984;2023-03-13T11:49:10;98495.22;;;10.74;67.46
42411;BME280;28056;51.112;0.984;2023-03-13T11:52:01;98530.33;;;12.07;64.17
42411;BME280;28056;51.112;0.984;2023-03-13T11:54:53;98504.97;;;11.75;67.36
42411;BME280;28056;51.112;0.984;2023-03-13T11:57:27;98504.02;;;12.19;66.10
42411;BME280;28056;51.112;0.984;2023-03-13T12:00:12;98490.48;;;12.48;64.62
42411;BME280;28056;51.112;0.984;2023-03-13T12:02:46;98504.34;;;11.56;67.08
42411;BME280;28056;51.112;0.984;2023-03-13T12:05:32;98502.82;;;11.77;68.86
42411;BME280;28056;51.112;0.984;2023-03-13T12:08:04;98494.58;;;11.70;66.31
42411;BME280;28056;51.112;0.984;2023-03-13T12:10:38;98493.28;;;11.53;67.06
42411;BME280;28056;51.112;0.984;2023-03-13T12:13:12;98497.80;;;11.00;68.53
42411;BME280;28056;51.112;0.984;2023-03-13T12:15:45;98490.68;;;10.45;69.89
42411;BME280;28056;51.112;0.984;2023-03-13T12:18:18;98486.79;;;11.25;69.20
42411;BME280;28056;51.112;0.984;2023-03-13T12:20:50;98508.95;;;11.07;66.81
42411;BME280;28056;51.112;0.984;2023-03-13T12:23:25;98478.95;;;11.80;66.91
42411;BME280;28056;51.112;0.984;2023-03-13T12:25:59;98457.83;;;11.90;67.19
42411;BME280;28056;51.112;0.984;2023-03-13T12:28:36;98473.72;;;12.04;65.04
42411;BME280;28056;51.112;0.984;2023-03-13T12:31:12;98469.67;;;11.24;65.38
42411;BME280;28056;51.112;0.984;2023-03-13T12:33:47;98483.52;;;11.24;66.20
42411;BME280;28056;51.112;0.984;2023-03-13T12:36:21;98500.78;;;11.56;66.28
42411;BME280;28056;51.112;0.984;2023-03-13T12:38:55;98480.85;;;11.24;65.94
42411;BME280;28056;51.112;0.984;2023-03-13T12:41:25;98483.68;;;10.88;66.47
42411;BME280;28056;51.112;0.984;2023-03-13T12:43:54;98507.32;;;10.84;65.72
42411;BME280;28056;51.112;0.984;2023-03-13T12:46:41;98478.55;;;10.86;66.13
42411;BME280;28056;51.112;0.984;2023-03-13T12:49:23;98485.25;;;10.99;63.80
42411;BME280;28056;51.112;0.984;2023-03-13T12:52:07;98477.06;;;11.32;64.28
42411;BME280;28056;51.112;0.984;2023-03-13T12:54:47;98484.18;;;11.53;64.75
42411;BME280;28056;51.112;0.984;2023-03-13T12:57:41;98472.39;;;11.19;65.22
42411;BME280;28056;51.112;0.984;2023-03-13T13:00:19;98474.79;;;10.19;69.32
42411;BME280;28056;51.112;0.984;2023-03-13T13:02:47;98464.99;;;10.73;68.88
42411;BME280;28056;51.112;0.984;2023-03-13T13:05:19;98456.30;;;11.07;67.87
42411;BME280;28056;51.112;0.984;2023-03-13T13:07:52;98455.33;;;10.42;68.83
42411;BME280;28056;51.112;0.984;2023-03-13T13:10:22;98465.82;;;10.64;70.19
42411;BME280;28056;51.112;0.984;2023-03-13T13:13:18;98450.64;;;10.60;69.68
42411;BME280;28056;51.112;0.984;2023-03-13T13:16:00;98448.49;;;10.72;69.75
42411;BME280;28056;51.112;0.984;2023-03-13T13:18:29;98453.13;;;10.96;69.56
42411;BME280;28056;51.112;0.984;2023-03-13T13:21:29;98445.14;;;11.00;70.95
42411;BME280;28056;51.112;0.984;2023-03-13T13:24:39;98445.45;;;11.12;70.44
42411;BME280;28056;51.112;0.984;2023-03-13T13:27:26;98445.41;;;10.68;73.29
42411;BME280;28056;51.112;0.984;2023-03-13T13:29:56;98425.96;;;10.77;71.19
42411;BME280;28056;51.112;0.984;2023-03-13T13:32:42;98437.31;;;10.25;73.40
42411;BME280;28056;51.112;0.984;2023-03-13T13:35:20;98445.02;;;10.27;71.46
42411;BME280;28056;51.112;0.984;2023-03-13T13:37:48;98436.39;;;11.22;70.60
42411;BME280;28056;51.112;0.984;2023-03-13T13:40:22;98423.16;;;11.21;70.31
42411;BME280;28056;51.112;0.984;2023-03-13T13:42:52;98435.21;;;10.89;70.77